Terminal Aerodrome Forecast
Issued by NWS Omaha/Valley, NE

Home | Current Version | Previous Version | Text Only | Print | Product List | Glossary On
Versions: 1 2 3 4 5 6 7 8 9 10 11 12 13 14 15 16 17 18 19 20 21 22 23 24 25 26 27 28 29 30
000
FTUS43 KOAX 220346 AAA
TAFOMA
TAF AMD
KOMA 220346Z 2204/2224 13004KT P6SM VCSH SCT080 BKN250
      TEMPO 2204/2205 5SM -TSRA BKN060CB
     FM220600 VRB04KT P6SM SCT060 BKN150
      TEMPO 2212/2214 5SM BR
     FM221900 09007KT P6SM SCT050=

USA.gov is the U.S. government's official web portal to all federal, state and local government web resources and services.